sensor_id;sensor_type;location;lat;lon;timestamp;temperature;humidity
17092;DHT22;8661;45.700;4.880;2024-02-21T00:00:27;6.10;99.90
17092;DHT22;8661;45.700;4.880;2024-02-21T00:02:54;6.10;99.90
17092;DHT22;8661;45.700;4.880;2024-02-21T00:05:23;6.00;99.90
17092;DHT22;8661;45.700;4.880;2024-02-21T00:07:50;6.00;99.90
17092;DHT22;8661;45.700;4.880;2024-02-21T00:10:17;6.00;99.90
17092;DHT22;8661;45.700;4.880;2024-02-21T00:12:44;6.10;99.90
17092;DHT22;8661;45.700;4.880;2024-02-21T00:15:11;6.10;99.90
17092;DHT22;8661;45.700;4.880;2024-02-21T00:17:39;6.10;99.90
17092;DHT22;8661;45.700;4.880;2024-02-21T00:20:07;6.10;99.90
17092;DHT22;8661;45.700;4.880;2024-02-21T00:22:34;6.00;99.90
17092;DHT22;8661;45.700;4.880;2024-02-21T00:25:01;6.10;99.90
17092;DHT22;8661;45.700;4.880;2024-02-21T00:27:28;6.10;99.90
17092;DHT22;8661;45.700;4.880;2024-02-21T00:29:55;6.10;99.90
17092;DHT22;8661;45.700;4.880;2024-02-21T00:32:22;6.10;99.90
17092;DHT22;8661;45.700;4.880;2024-02-21T00:34:50;6.10;99.90
17092;DHT22;8661;45.700;4.880;2024-02-21T00:37:17;6.10;99.90
17092;DHT22;8661;45.700;4.880;2024-02-21T00:39:44;6.10;99.90
17092;DHT22;8661;45.700;4.880;2024-02-21T00:42:11;6.10;99.90
17092;DHT22;8661;45.700;4.880;2024-02-21T00:44:38;6.10;99.90
17092;DHT22;8661;45.700;4.880;2024-02-21T00:47:05;6.10;99.90
17092;DHT22;8661;45.700;4.880;2024-02-21T00:49:32;6.10;99.90
17092;DHT22;8661;45.700;4.880;2024-02-21T00:52:01;6.10;99.90
17092;DHT22;8661;45.700;4.880;2024-02-21T00:54:28;6.10;99.90
17092;DHT22;8661;45.700;4.880;2024-02-21T00:56:54;6.10;99.90
17092;DHT22;8661;45.700;4.880;2024-02-21T00:59:21;6.10;99.90
17092;DHT22;8661;45.700;4.880;2024-02-21T01:01:48;6.10;99.90
17092;DHT22;8661;45.700;4.880;2024-02-21T01:04:15;6.00;99.90
17092;DHT22;8661;45.700;4.880;2024-02-21T01:06:42;6.00;99.90
17092;DHT22;8661;45.700;4.880;2024-02-21T01:09:11;6.00;99.90
17092;DHT22;8661;45.700;4.880;2024-02-21T01:11:38;5.90;99.90
17092;DHT22;8661;45.700;4.880;2024-02-21T01:14:05;5.90;99.90
17092;DHT22;8661;45.700;4.880;2024-02-21T01:16:32;5.90;99.90
17092;DHT22;8661;45.700;4.880;2024-02-21T01:18:58;5.80;99.90
17092;DHT22;8661;45.700;4.880;2024-02-21T01:21:25;5.80;99.90
17092;DHT22;8661;45.700;4.880;2024-02-21T01:23:52;5.80;99.90
17092;DHT22;8661;45.700;4.880;2024-02-21T01:26:21;5.80;99.90
17092;DHT22;8661;45.700;4.880;2024-02-21T01:28:48;5.70;99.90
17092;DHT22;8661;45.700;4.880;2024-02-21T01:31:14;5.70;99.90
17092;DHT22;8661;45.700;4.880;2024-02-21T01:33:41;5.70;99.90
17092;DHT22;8661;45.700;4.880;2024-02-21T01:36:08;5.60;99.90
17092;DHT22;8661;45.700;4.880;2024-02-21T01:38:35;5.70;99.90
17092;DHT22;8661;45.700;4.880;2024-02-21T01:41:03;5.70;99.90
17092;DHT22;8661;45.700;4.880;2024-02-21T01:43:31;5.70;99.90
17092;DHT22;8661;45.700;4.880;2024-02-21T01:45:58;5.60;99.90
17092;DHT22;8661;45.700;4.880;2024-02-21T01:48:25;5.60;99.90
17092;DHT22;8661;45.700;4.880;2024-02-21T01:50:54;5.60;99.90
17092;DHT22;8661;45.700;4.880;2024-02-21T01:53:23;5.60;99.90
17092;DHT22;8661;45.700;4.880;2024-02-21T01:55:51;5.60;99.90
17092;DHT22;8661;45.700;4.880;2024-02-21T01:58:19;5.60;99.90
17092;DHT22;8661;45.700;4.880;2024-02-21T02:00:48;5.50;99.90
17092;DHT22;8661;45.700;4.880;2024-02-21T02:03:15;5.50;99.90
17092;DHT22;8661;45.700;4.880;2024-02-21T02:05:44;5.50;99.90
17092;DHT22;8661;45.700;4.880;2024-02-21T02:08:12;5.60;99.90
17092;DHT22;8661;45.700;4.880;2024-02-21T02:10:39;5.60;99.90
17092;DHT22;8661;45.700;4.880;2024-02-21T02:13:06;5.50;99.90
17092;DHT22;8661;45.700;4.880;2024-02-21T02:15:40;5.50;99.90
17092;DHT22;8661;45.700;4.880;2024-02-21T02:18:09;5.50;99.90
17092;DHT22;8661;45.700;4.880;2024-02-21T02:20:36;5.50;99.90
17092;DHT22;8661;45.700;4.880;2024-02-21T02:23:07;5.60;99.90
17092;DHT22;8661;45.700;4.880;2024-02-21T02:25:37;5.60;99.90
17092;DHT22;8661;45.700;4.880;2024-02-21T02:28:04;5.60;99.90
17092;DHT22;8661;45.700;4.880;2024-02-21T02:30:32;5.60;99.90
17092;DHT22;8661;45.700;4.880;2024-02-21T02:33:01;5.60;99.90
17092;DHT22;8661;45.700;4.880;2024-02-21T02:35:28;5.60;99.90
17092;DHT22;8661;45.700;4.880;2024-02-21T02:37:55;5.60;99.90
17092;DHT22;8661;45.700;4.880;2024-02-21T02:40:22;5.50;99.90
17092;DHT22;8661;45.700;4.880;2024-02-21T02:42:51;5.50;99.90
17092;DHT22;8661;45.700;4.880;2024-02-21T02:45:21;5.50;99.90
17092;DHT22;8661;45.700;4.880;2024-02-21T02:47:48;5.50;99.90
17092;DHT22;8661;45.700;4.880;2024-02-21T02:50:15;5.40;99.90
17092;DHT22;8661;45.700;4.880;2024-02-21T02:52:42;5.40;99.90
17092;DHT22;8661;45.700;4.880;2024-02-21T02:55:09;5.40;99.90
17092;DHT22;8661;45.700;4.880;2024-02-21T02:57:36;5.40;99.90
17092;DHT22;8661;45.700;4.880;2024-02-21T03:00:06;5.40;99.90
17092;DHT22;8661;45.700;4.880;2024-02-21T03:02:33;5.40;99.90
17092;DHT22;8661;45.700;4.880;2024-02-21T03:05:00;5.40;99.90
17092;DHT22;8661;45.700;4.880;2024-02-21T03:07:27;5.40;99.90
17092;DHT22;8661;45.700;4.880;2024-02-21T03:09:54;5.40;99.90
17092;DHT22;8661;45.700;4.880;2024-02-21T03:12:21;5.30;99.90
17092;DHT22;8661;45.700;4.880;2024-02-21T03:14:53;5.30;99.90
17092;DHT22;8661;45.700;4.880;2024-02-21T03:17:21;5.30;99.90
17092;DHT22;8661;45.700;4.880;2024-02-21T03:19:48;5.30;99.90
17092;DHT22;8661;45.700;4.880;2024-02-21T03:22:16;5.30;99.90
17092;DHT22;8661;45.700;4.880;2024-02-21T03:24:43;5.30;99.90
17092;DHT22;8661;45.700;4.880;2024-02-21T03:27:10;5.30;99.90
17092;DHT22;8661;45.700;4.880;2024-02-21T03:29:37;5.30;99.90
17092;DHT22;8661;45.700;4.880;2024-02-21T03:32:04;5.30;99.90
17092;DHT22;8661;45.700;4.880;2024-02-21T03:34:32;5.30;99.90
17092;DHT22;8661;45.700;4.880;2024-02-21T03:36:59;5.30;99.90
17092;DHT22;8661;45.700;4.880;2024-02-21T03:39:26;5.30;99.90
17092;DHT22;8661;45.700;4.880;2024-02-21T03:41:53;5.30;99.90
17092;DHT22;8661;45.700;4.880;2024-02-21T03:44:20;5.30;99.90
17092;DHT22;8661;45.700;4.880;2024-02-21T03:46:47;5.30;99.90
17092;DHT22;8661;45.700;4.880;2024-02-21T03:49:14;5.30;99.90
17092;DHT22;8661;45.700;4.880;2024-02-21T03:51:42;5.40;99.90
17092;DHT22;8661;45.700;4.880;2024-02-21T03:54:09;5.40;99.90
17092;DHT22;8661;45.700;4.880;2024-02-21T03:56:37;5.40;99.90
17092;DHT22;8661;45.700;4.880;2024-02-21T03:59:05;5.40;99.90
17092;DHT22;8661;45.700;4.880;2024-02-21T04:01:33;5.30;99.90
17092;DHT22;8661;45.700;4.880;2024-02-21T04:04:00;5.40;99.90
17092;DHT22;8661;45.700;4.880;2024-02-21T04:06:27;5.40;99.90
17092;DHT22;8661;45.700;4.880;2024-02-21T04:08:56;5.40;99.90
17092;DHT22;8661;45.700;4.880;2024-02-21T04:11:23;5.40;99.90
17092;DHT22;8661;45.700;4.880;2024-02-21T04:13:50;5.40;99.90
17092;DHT22;8661;45.700;4.880;2024-02-21T04:16:17;5.50;99.90
17092;DHT22;8661;45.700;4.880;2024-02-21T04:18:44;5.50;99.90
17092;DHT22;8661;45.700;4.880;2024-02-21T04:21:14;5.50;99.90
17092;DHT22;8661;45.700;4.880;2024-02-21T04:23:42;5.50;99.90
17092;DHT22;8661;45.700;4.880;2024-02-21T04:26:10;5.60;99.90
17092;DHT22;8661;45.700;4.880;2024-02-21T04:28:37;5.50;99.90
17092;DHT22;8661;45.700;4.880;2024-02-21T04:31:04;5.50;99.90
17092;DHT22;8661;45.700;4.880;2024-02-21T04:33:31;5.60;99.90
17092;DHT22;8661;45.700;4.880;2024-02-21T04:35:58;5.60;99.90
17092;DHT22;8661;45.700;4.880;2024-02-21T04:38:27;5.50;99.90
17092;DHT22;8661;45.700;4.880;2024-02-21T04:40:54;5.50;99.90
17092;DHT22;8661;45.700;4.880;2024-02-21T04:43:22;5.50;99.90
17092;DHT22;8661;45.700;4.880;2024-02-21T04:45:49;5.60;99.90
17092;DHT22;8661;45.700;4.880;2024-02-21T04:48:31;5.60;99.90
17092;DHT22;8661;45.700;4.880;2024-02-21T04:51:01;5.60;99.90
17092;DHT22;8661;45.700;4.880;2024-02-21T04:56:14;5.50;99.90
17092;DHT22;8661;45.700;4.880;2024-02-21T04:58:46;5.60;99.90
17092;DHT22;8661;45.700;4.880;2024-02-21T05:01:17;5.60;99.90
17092;DHT22;8661;45.700;4.880;2024-02-21T05:04:03;5.50;99.90
17092;DHT22;8661;45.700;4.880;2024-02-21T05:06:46;5.50;99.90
17092;DHT22;8661;45.700;4.880;2024-02-21T05:09:59;5.50;99.90
17092;DHT22;8661;45.700;4.880;2024-02-21T05:12:47;5.50;99.90
17092;DHT22;8661;45.700;4.880;2024-02-21T05:15:40;5.50;99.90
17092;DHT22;8661;45.700;4.880;2024-02-21T05:18:28;5.50;99.90
17092;DHT22;8661;45.700;4.880;2024-02-21T05:24:06;5.50;99.90
17092;DHT22;8661;45.700;4.880;2024-02-21T05:28:24;5.50;99.90
17092;DHT22;8661;45.700;4.880;2024-02-21T05:37:20;5.50;99.90
17092;DHT22;8661;45.700;4.880;2024-02-21T05:40:33;5.50;99.90
17092;DHT22;8661;45.700;4.880;2024-02-21T05:43:11;5.50;99.90
17092;DHT22;8661;45.700;4.880;2024-02-21T05:46:18;5.40;99.90
17092;DHT22;8661;45.700;4.880;2024-02-21T05:49:22;5.40;99.90
17092;DHT22;8661;45.700;4.880;2024-02-21T05:52:06;5.50;99.90
17092;DHT22;8661;45.700;4.880;2024-02-21T05:54:37;5.40;99.90
17092;DHT22;8661;45.700;4.880;2024-02-21T05:57:19;5.40;99.90
17092;DHT22;8661;45.700;4.880;2024-02-21T05:59:46;5.40;99.90
17092;DHT22;8661;45.700;4.880;2024-02-21T06:02:13;5.40;99.90
17092;DHT22;8661;45.700;4.880;2024-02-21T06:04:40;5.40;99.90
17092;DHT22;8661;45.700;4.880;2024-02-21T06:07:08;5.50;99.90
17092;DHT22;8661;45.700;4.880;2024-02-21T06:09:36;5.50;99.90
17092;DHT22;8661;45.700;4.880;2024-02-21T06:12:04;5.40;99.90
17092;DHT22;8661;45.700;4.880;2024-02-21T06:14:31;5.50;99.90
17092;DHT22;8661;45.700;4.880;2024-02-21T06:16:57;5.50;99.90
17092;DHT22;8661;45.700;4.880;2024-02-21T06:19:24;5.50;99.90
17092;DHT22;8661;45.700;4.880;2024-02-21T06:21:51;5.50;99.90
17092;DHT22;8661;45.700;4.880;2024-02-21T06:24:18;5.40;99.90
17092;DHT22;8661;45.700;4.880;2024-02-21T06:26:47;5.40;99.90
17092;DHT22;8661;45.700;4.880;2024-02-21T06:29:14;5.40;99.90
17092;DHT22;8661;45.700;4.880;2024-02-21T06:31:42;5.40;99.90
17092;DHT22;8661;45.700;4.880;2024-02-21T06:34:11;5.40;99.90
17092;DHT22;8661;45.700;4.880;2024-02-21T06:36:39;5.40;99.90
17092;DHT22;8661;45.700;4.880;2024-02-21T06:39:08;5.40;99.90
17092;DHT22;8661;45.700;4.880;2024-02-21T06:41:36;5.50;99.90
17092;DHT22;8661;45.700;4.880;2024-02-21T06:44:05;5.50;99.90
17092;DHT22;8661;45.700;4.880;2024-02-21T06:46:34;5.50;99.90
17092;DHT22;8661;45.700;4.880;2024-02-21T06:49:02;5.60;99.90
17092;DHT22;8661;45.700;4.880;2024-02-21T06:51:31;5.60;99.90
17092;DHT22;8661;45.700;4.880;2024-02-21T06:54:00;5.60;99.90
17092;DHT22;8661;45.700;4.880;2024-02-21T06:56:27;5.60;99.90
17092;DHT22;8661;45.700;4.880;2024-02-21T06:58:55;5.70;99.90
17092;DHT22;8661;45.700;4.880;2024-02-21T07:01:23;5.70;99.90
17092;DHT22;8661;45.700;4.880;2024-02-21T07:03:52;5.70;99.90
17092;DHT22;8661;45.700;4.880;2024-02-21T07:06:20;5.70;99.90
17092;DHT22;8661;45.700;4.880;2024-02-21T07:08:47;5.70;99.90
17092;DHT22;8661;45.700;4.880;2024-02-21T07:11:14;5.70;99.90
17092;DHT22;8661;45.700;4.880;2024-02-21T07:13:42;5.60;99.90
17092;DHT22;8661;45.700;4.880;2024-02-21T07:16:09;5.60;99.90
17092;DHT22;8661;45.700;4.880;2024-02-21T07:18:38;5.70;99.90
17092;DHT22;8661;45.700;4.880;2024-02-21T07:21:22;5.60;99.90
17092;DHT22;8661;45.700;4.880;2024-02-21T07:23:55;5.60;99.90
17092;DHT22;8661;45.700;4.880;2024-02-21T07:26:51;5.70;99.90
17092;DHT22;8661;45.700;4.880;2024-02-21T07:29:18;5.70;99.90
17092;DHT22;8661;45.700;4.880;2024-02-21T07:32:24;5.70;99.90
17092;DHT22;8661;45.700;4.880;2024-02-21T07:38:34;5.90;99.90
17092;DHT22;8661;45.700;4.880;2024-02-21T07:41:01;6.00;99.90
17092;DHT22;8661;45.700;4.880;2024-02-21T07:43:31;6.10;99.90
17092;DHT22;8661;45.700;4.880;2024-02-21T07:46:04;6.10;99.90
17092;DHT22;8661;45.700;4.880;2024-02-21T07:52:20;6.30;99.90
17092;DHT22;8661;45.700;4.880;2024-02-21T07:54:49;6.50;99.90
17092;DHT22;8661;45.700;4.880;2024-02-21T07:57:16;6.60;99.90
17092;DHT22;8661;45.700;4.880;2024-02-21T07:59:43;6.60;99.90
17092;DHT22;8661;45.700;4.880;2024-02-21T08:02:10;6.70;99.90
17092;DHT22;8661;45.700;4.880;2024-02-21T08:04:37;6.80;99.90
17092;DHT22;8661;45.700;4.880;2024-02-21T08:07:04;6.90;99.90
17092;DHT22;8661;45.700;4.880;2024-02-21T08:09:33;6.90;99.90
17092;DHT22;8661;45.700;4.880;2024-02-21T08:12:02;7.00;99.90
17092;DHT22;8661;45.700;4.880;2024-02-21T08:14:29;7.00;99.90
17092;DHT22;8661;45.700;4.880;2024-02-21T08:16:56;7.10;99.90
17092;DHT22;8661;45.700;4.880;2024-02-21T08:19:25;7.10;99.90
17092;DHT22;8661;45.700;4.880;2024-02-21T08:21:52;7.10;99.90
17092;DHT22;8661;45.700;4.880;2024-02-21T08:24:19;7.10;99.90
17092;DHT22;8661;45.700;4.880;2024-02-21T08:26:45;7.10;99.90
17092;DHT22;8661;45.700;4.880;2024-02-21T08:29:14;7.20;99.90
17092;DHT22;8661;45.700;4.880;2024-02-21T08:31:41;7.30;99.90
17092;DHT22;8661;45.700;4.880;2024-02-21T08:34:08;7.40;99.90
17092;DHT22;8661;45.700;4.880;2024-02-21T08:36:38;7.50;99.90
17092;DHT22;8661;45.700;4.880;2024-02-21T08:39:05;7.50;99.90
17092;DHT22;8661;45.700;4.880;2024-02-21T08:41:33;7.70;99.90
17092;DHT22;8661;45.700;4.880;2024-02-21T08:44:00;7.90;99.90
17092;DHT22;8661;45.700;4.880;2024-02-21T08:46:29;8.20;99.90
17092;DHT22;8661;45.700;4.880;2024-02-21T08:48:56;8.60;99.90
17092;DHT22;8661;45.700;4.880;2024-02-21T08:51:23;8.80;99.90
17092;DHT22;8661;45.700;4.880;2024-02-21T08:53:50;9.10;99.90
17092;DHT22;8661;45.700;4.880;2024-02-21T08:56:17;9.20;99.90
17092;DHT22;8661;45.700;4.880;2024-02-21T08:58:44;9.50;99.90
17092;DHT22;8661;45.700;4.880;2024-02-21T09:01:12;9.80;99.90
17092;DHT22;8661;45.700;4.880;2024-02-21T09:03:42;10.30;99.90
17092;DHT22;8661;45.700;4.880;2024-02-21T09:06:10;10.60;99.90
17092;DHT22;8661;45.700;4.880;2024-02-21T09:08:38;10.90;99.90
17092;DHT22;8661;45.700;4.880;2024-02-21T09:11:06;11.10;99.90
17092;DHT22;8661;45.700;4.880;2024-02-21T09:13:33;11.40;99.90
17092;DHT22;8661;45.700;4.880;2024-02-21T09:16:00;11.60;99.90
17092;DHT22;8661;45.700;4.880;2024-02-21T09:18:27;11.60;99.90
17092;DHT22;8661;45.700;4.880;2024-02-21T09:20:55;11.80;99.90
17092;DHT22;8661;45.700;4.880;2024-02-21T09:23:24;11.80;99.90
17092;DHT22;8661;45.700;4.880;2024-02-21T09:25:51;12.20;99.90
17092;DHT22;8661;45.700;4.880;2024-02-21T09:28:18;12.40;99.90
17092;DHT22;8661;45.700;4.880;2024-02-21T09:30:45;12.40;99.90
17092;DHT22;8661;45.700;4.880;2024-02-21T09:33:12;12.60;99.90
17092;DHT22;8661;45.700;4.880;2024-02-21T09:35:39;12.70;99.90
17092;DHT22;8661;45.700;4.880;2024-02-21T09:38:07;13.20;99.90
17092;DHT22;8661;45.700;4.880;2024-02-21T09:40:34;13.90;99.90
17092;DHT22;8661;45.700;4.880;2024-02-21T09:43:04;14.60;99.90
17092;DHT22;8661;45.700;4.880;2024-02-21T09:45:33;14.80;99.90
17092;DHT22;8661;45.700;4.880;2024-02-21T09:48:22;15.00;99.90
17092;DHT22;8661;45.700;4.880;2024-02-21T09:50:53;15.50;98.00
17092;DHT22;8661;45.700;4.880;2024-02-21T09:53:24;15.50;98.60
17092;DHT22;8661;45.700;4.880;2024-02-21T09:55:52;15.40;97.80
17092;DHT22;8661;45.700;4.880;2024-02-21T09:58:19;15.50;97.60
17092;DHT22;8661;45.700;4.880;2024-02-21T10:00:46;15.30;97.30
17092;DHT22;8661;45.700;4.880;2024-02-21T10:03:13;15.20;97.40
17092;DHT22;8661;45.700;4.880;2024-02-21T10:05:47;14.90;97.80
17092;DHT22;8661;45.700;4.880;2024-02-21T10:08:15;15.20;97.70
17092;DHT22;8661;45.700;4.880;2024-02-21T10:10:44;14.90;97.50
17092;DHT22;8661;45.700;4.880;2024-02-21T10:13:24;14.50;97.80
17092;DHT22;8661;45.700;4.880;2024-02-21T10:16:01;14.70;98.20
17092;DHT22;8661;45.700;4.880;2024-02-21T10:18:28;14.70;97.70
17092;DHT22;8661;45.700;4.880;2024-02-21T10:21:03;14.50;97.90
17092;DHT22;8661;45.700;4.880;2024-02-21T10:23:41;14.30;98.10
17092;DHT22;8661;45.700;4.880;2024-02-21T10:26:10;14.50;98.10
17092;DHT22;8661;45.700;4.880;2024-02-21T10:28:37;14.60;98.00
17092;DHT22;8661;45.700;4.880;2024-02-21T10:31:08;14.60;98.10
17092;DHT22;8661;45.700;4.880;2024-02-21T10:33:36;14.40;98.20
17092;DHT22;8661;45.700;4.880;2024-02-21T10:36:10;14.40;98.40
17092;DHT22;8661;45.700;4.880;2024-02-21T10:38:37;14.50;98.10
17092;DHT22;8661;45.700;4.880;2024-02-21T10:41:05;14.70;98.10
17092;DHT22;8661;45.700;4.880;2024-02-21T10:43:39;14.90;97.60
17092;DHT22;8661;45.700;4.880;2024-02-21T10:46:07;14.90;97.40
17092;DHT22;8661;45.700;4.880;2024-02-21T10:48:42;15.00;97.30
17092;DHT22;8661;45.700;4.880;2024-02-21T10:51:15;14.90;96.90
17092;DHT22;8661;45.700;4.880;2024-02-21T10:53:45;14.90;96.90
17092;DHT22;8661;45.700;4.880;2024-02-21T10:56:28;15.00;96.60
17092;DHT22;8661;45.700;4.880;2024-02-21T10:58:58;15.00;96.70
17092;DHT22;8661;45.700;4.880;2024-02-21T11:01:25;15.20;96.50
17092;DHT22;8661;45.700;4.880;2024-02-21T11:03:56;15.10;96.40
17092;DHT22;8661;45.700;4.880;2024-02-21T11:06:25;15.00;96.60
17092;DHT22;8661;45.700;4.880;2024-02-21T11:09:03;15.10;96.30
17092;DHT22;8661;45.700;4.880;2024-02-21T11:11:33;15.00;95.90
17092;DHT22;8661;45.700;4.880;2024-02-21T11:14:08;15.00;96.20
17092;DHT22;8661;45.700;4.880;2024-02-21T11:16:37;15.00;96.00
17092;DHT22;8661;45.700;4.880;2024-02-21T11:19:09;15.20;96.20
17092;DHT22;8661;45.700;4.880;2024-02-21T11:21:42;15.20;96.00
17092;DHT22;8661;45.700;4.880;2024-02-21T11:24:09;15.40;95.70
17092;DHT22;8661;45.700;4.880;2024-02-21T11:26:37;15.40;95.60
17092;DHT22;8661;45.700;4.880;2024-02-21T11:29:04;15.20;95.60
17092;DHT22;8661;45.700;4.880;2024-02-21T11:31:43;15.20;95.70
17092;DHT22;8661;45.700;4.880;2024-02-21T11:34:11;15.30;95.30
17092;DHT22;8661;45.700;4.880;2024-02-21T11:36:46;15.20;95.30
17092;DHT22;8661;45.700;4.880;2024-02-21T11:39:19;15.30;95.00
17092;DHT22;8661;45.700;4.880;2024-02-21T11:41:47;15.40;95.30
17092;DHT22;8661;45.700;4.880;2024-02-21T11:44:14;15.40;94.70
17092;DHT22;8661;45.700;4.880;2024-02-21T11:46:42;15.20;94.90
17092;DHT22;8661;45.700;4.880;2024-02-21T11:49:10;15.10;94.80
17092;DHT22;8661;45.700;4.880;2024-02-21T11:51:37;15.00;94.60
17092;DHT22;8661;45.700;4.880;2024-02-21T11:54:05;15.10;94.70
17092;DHT22;8661;45.700;4.880;2024-02-21T11:56:32;15.10;94.60
17092;DHT22;8661;45.700;4.880;2024-02-21T11:59:01;15.10;94.60
17092;DHT22;8661;45.700;4.880;2024-02-21T12:01:28;15.20;94.60
17092;DHT22;8661;45.700;4.880;2024-02-21T12:03:57;15.30;94.50
17092;DHT22;8661;45.700;4.880;2024-02-21T12:06:24;15.40;94.50
17092;DHT22;8661;45.700;4.880;2024-02-21T12:08:51;15.50;94.10
17092;DHT22;8661;45.700;4.880;2024-02-21T12:11:22;15.60;93.90
17092;DHT22;8661;45.700;4.880;2024-02-21T12:13:59;15.70;93.40
17092;DHT22;8661;45.700;4.880;2024-02-21T12:16:27;15.70;93.00
17092;DHT22;8661;45.700;4.880;2024-02-21T12:18:56;15.80;93.10
17092;DHT22;8661;45.700;4.880;2024-02-21T12:21:24;15.90;92.80
17092;DHT22;8661;45.700;4.880;2024-02-21T12:23:53;15.90;92.70
17092;DHT22;8661;45.700;4.880;2024-02-21T12:26:20;15.90;92.60
17092;DHT22;8661;45.700;4.880;2024-02-21T12:28:47;15.80;92.90
17092;DHT22;8661;45.700;4.880;2024-02-21T12:31:14;15.80;92.70
17092;DHT22;8661;45.700;4.880;2024-02-21T12:33:42;15.80;92.50
17092;DHT22;8661;45.700;4.880;2024-02-21T12:36:11;15.70;92.70
17092;DHT22;8661;45.700;4.880;2024-02-21T12:38:38;15.60;92.50
17092;DHT22;8661;45.700;4.880;2024-02-21T12:41:05;15.50;92.50
17092;DHT22;8661;45.700;4.880;2024-02-21T12:43:33;15.40;92.30
17092;DHT22;8661;45.700;4.880;2024-02-21T12:46:00;15.40;92.40
17092;DHT22;8661;45.700;4.880;2024-02-21T12:48:27;15.40;92.60
17092;DHT22;8661;45.700;4.880;2024-02-21T12:50:54;15.40;92.60
17092;DHT22;8661;45.700;4.880;2024-02-21T12:53:22;15.40;92.60
17092;DHT22;8661;45.700;4.880;2024-02-21T12:55:49;15.40;92.10
17092;DHT22;8661;45.700;4.880;2024-02-21T12:58:17;15.30;92.00
17092;DHT22;8661;45.700;4.880;2024-02-21T13:00:44;15.30;92.00
17092;DHT22;8661;45.700;4.880;2024-02-21T13:03:11;15.40;91.90
17092;DHT22;8661;45.700;4.880;2024-02-21T13:05:39;15.50;91.80
17092;DHT22;8661;45.700;4.880;2024-02-21T13:08:06;15.70;91.70
17092;DHT22;8661;45.700;4.880;2024-02-21T13:10:35;16.00;91.30
17092;DHT22;8661;45.700;4.880;2024-02-21T13:13:02;16.30;90.90
17092;DHT22;8661;45.700;4.880;2024-02-21T13:15:29;16.50;90.50
17092;DHT22;8661;45.700;4.880;2024-02-21T13:17:56;16.60;90.20
17092;DHT22;8661;45.700;4.880;2024-02-21T13:20:24;16.80;89.90
17092;DHT22;8661;45.700;4.880;2024-02-21T13:22:52;17.10;88.70
17092;DHT22;8661;45.700;4.880;2024-02-21T13:25:19;17.20;88.10
17092;DHT22;8661;45.700;4.880;2024-02-21T13:27:48;17.30;88.10
17092;DHT22;8661;45.700;4.880;2024-02-21T13:30:15;17.20;87.60
17092;DHT22;8661;45.700;4.880;2024-02-21T13:32:43;17.10;87.00
17092;DHT22;8661;45.700;4.880;2024-02-21T13:35:12;16.90;88.00
17092;DHT22;8661;45.700;4.880;2024-02-21T13:37:40;16.90;87.60
17092;DHT22;8661;45.700;4.880;2024-02-21T13:40:07;17.00;87.60
17092;DHT22;8661;45.700;4.880;2024-02-21T13:42:36;17.00;87.50
17092;DHT22;8661;45.700;4.880;2024-02-21T13:45:05;17.00;88.10
17092;DHT22;8661;45.700;4.880;2024-02-21T13:47:33;17.10;87.50
17092;DHT22;8661;45.700;4.880;2024-02-21T13:50:02;16.90;87.20
17092;DHT22;8661;45.700;4.880;2024-02-21T13:52:30;17.00;87.20
17092;DHT22;8661;45.700;4.880;2024-02-21T13:54:57;17.00;87.00
17092;DHT22;8661;45.700;4.880;2024-02-21T13:57:24;16.90;86.60
17092;DHT22;8661;45.700;4.880;2024-02-21T13:59:51;17.00;86.50
17092;DHT22;8661;45.700;4.880;2024-02-21T14:02:19;16.90;86.40
17092;DHT22;8661;45.700;4.880;2024-02-21T14:04:47;16.90;86.20
17092;DHT22;8661;45.700;4.880;2024-02-21T14:07:14;16.70;85.90
17092;DHT22;8661;45.700;4.880;2024-02-21T14:09:41;16.60;85.80
17092;DHT22;8661;45.700;4.880;2024-02-21T14:12:08;16.50;86.40
17092;DHT22;8661;45.700;4.880;2024-02-21T14:14:35;16.50;86.60
17092;DHT22;8661;45.700;4.880;2024-02-21T14:17:03;16.60;86.60
17092;DHT22;8661;45.700;4.880;2024-02-21T14:19:31;16.60;86.00
17092;DHT22;8661;45.700;4.880;2024-02-21T14:21:58;16.60;85.60
17092;DHT22;8661;45.700;4.880;2024-02-21T14:24:25;16.60;85.20
17092;DHT22;8661;45.700;4.880;2024-02-21T14:26:53;16.60;85.00
17092;DHT22;8661;45.700;4.880;2024-02-21T14:29:20;16.60;84.90
17092;DHT22;8661;45.700;4.880;2024-02-21T14:31:48;16.70;84.10
17092;DHT22;8661;45.700;4.880;2024-02-21T14:34:14;16.70;83.70
17092;DHT22;8661;45.700;4.880;2024-02-21T14:36:43;16.80;83.70
17092;DHT22;8661;45.700;4.880;2024-02-21T14:39:10;16.80;83.30
17092;DHT22;8661;45.700;4.880;2024-02-21T14:41:37;16.80;82.50
17092;DHT22;8661;45.700;4.880;2024-02-21T14:44:05;16.80;82.50
17092;DHT22;8661;45.700;4.880;2024-02-21T14:46:36;16.80;82.20
17092;DHT22;8661;45.700;4.880;2024-02-21T14:49:03;16.80;82.00
17092;DHT22;8661;45.700;4.880;2024-02-21T14:51:30;16.80;81.60
17092;DHT22;8661;45.700;4.880;2024-02-21T14:53:59;16.80;80.80
17092;DHT22;8661;45.700;4.880;2024-02-21T14:56:26;16.70;80.10
17092;DHT22;8661;45.700;4.880;2024-02-21T14:58:53;16.70;80.00
17092;DHT22;8661;45.700;4.880;2024-02-21T15:01:20;16.60;79.30
17092;DHT22;8661;45.700;4.880;2024-02-21T15:03:47;16.60;79.40
17092;DHT22;8661;45.700;4.880;2024-02-21T15:06:14;16.60;78.90
17092;DHT22;8661;45.700;4.880;2024-02-21T15:08:41;16.50;78.80
17092;DHT22;8661;45.700;4.880;2024-02-21T15:11:09;16.50;77.90
17092;DHT22;8661;45.700;4.880;2024-02-21T15:13:36;16.50;77.40
17092;DHT22;8661;45.700;4.880;2024-02-21T15:16:04;16.50;77.00
17092;DHT22;8661;45.700;4.880;2024-02-21T15:18:31;16.50;76.80
17092;DHT22;8661;45.700;4.880;2024-02-21T15:20:59;16.50;75.80
17092;DHT22;8661;45.700;4.880;2024-02-21T15:23:26;16.50;75.70
17092;DHT22;8661;45.700;4.880;2024-02-21T15:25:53;16.50;75.70
17092;DHT22;8661;45.700;4.880;2024-02-21T15:28:22;16.50;75.80
17092;DHT22;8661;45.700;4.880;2024-02-21T15:30:49;16.40;75.40
17092;DHT22;8661;45.700;4.880;2024-02-21T15:33:16;16.40;74.70
17092;DHT22;8661;45.700;4.880;2024-02-21T15:35:43;16.40;74.70
17092;DHT22;8661;45.700;4.880;2024-02-21T15:38:10;16.40;74.50
17092;DHT22;8661;45.700;4.880;2024-02-21T15:40:36;16.40;74.50
17092;DHT22;8661;45.700;4.880;2024-02-21T15:43:03;16.30;74.10
17092;DHT22;8661;45.700;4.880;2024-02-21T15:45:32;16.30;74.40
17092;DHT22;8661;45.700;4.880;2024-02-21T15:47:59;16.30;73.90
17092;DHT22;8661;45.700;4.880;2024-02-21T15:50:26;16.30;73.80
17092;DHT22;8661;45.700;4.880;2024-02-21T15:52:53;16.30;74.00
17092;DHT22;8661;45.700;4.880;2024-02-21T15:55:20;16.30;74.20
17092;DHT22;8661;45.700;4.880;2024-02-21T15:57:47;16.20;73.90
17092;DHT22;8661;45.700;4.880;2024-02-21T16:00:16;16.20;73.80
17092;DHT22;8661;45.700;4.880;2024-02-21T16:02:45;16.20;73.80
17092;DHT22;8661;45.700;4.880;2024-02-21T16:05:12;16.20;74.00
17092;DHT22;8661;45.700;4.880;2024-02-21T16:07:39;16.20;73.60
17092;DHT22;8661;45.700;4.880;2024-02-21T16:10:07;16.20;74.90
17092;DHT22;8661;45.700;4.880;2024-02-21T16:12:34;16.10;73.80
17092;DHT22;8661;45.700;4.880;2024-02-21T16:15:01;16.10;73.60
17092;DHT22;8661;45.700;4.880;2024-02-21T16:17:30;16.10;73.30
17092;DHT22;8661;45.700;4.880;2024-02-21T16:19:59;16.00;73.00
17092;DHT22;8661;45.700;4.880;2024-02-21T16:22:27;16.00;72.80
17092;DHT22;8661;45.700;4.880;2024-02-21T16:24:54;16.00;72.80
17092;DHT22;8661;45.700;4.880;2024-02-21T16:27:21;16.00;73.20